createdAt,value
2023-03-22T00:00:17.636Z,3.58
2023-03-22T00:02:44.922Z,3.25
2023-03-22T00:05:21.287Z,3.20
2023-03-22T00:07:54.351Z,3.25
2023-03-22T00:10:21.601Z,3.70
2023-03-22T00:12:48.774Z,5.05
2023-03-22T00:15:16.001Z,5.32
2023-03-22T00:17:44.971Z,4.40
2023-03-22T00:20:13.043Z,3.17
2023-03-22T00:22:40.198Z,4.18
2023-03-22T00:25:07.854Z,3.95
2023-03-22T00:27:35.051Z,2.75
2023-03-22T00:30:03.155Z,2.88
2023-03-22T00:32:30.272Z,2.85
2023-03-22T00:34:57.545Z,2.75
2023-03-22T00:37:25.120Z,2.60
2023-03-22T00:39:52.280Z,3.00
2023-03-22T00:42:19.421Z,3.15
2023-03-22T00:44:46.579Z,3.47
2023-03-22T00:47:14.767Z,3.33
2023-03-22T00:49:41.924Z,3.45
2023-03-22T00:52:09.282Z,2.72
2023-03-22T00:54:36.417Z,3.22
2023-03-22T00:57:03.798Z,3.28
2023-03-22T00:59:31.240Z,2.95
2023-03-22T01:04:26.503Z,5.63
2023-03-22T01:06:59.452Z,3.17
2023-03-22T01:09:29.171Z,2.45
2023-03-22T01:11:57.814Z,2.10
2023-03-22T01:14:26.324Z,2.03
2023-03-22T01:16:57.716Z,2.25
2023-03-22T01:19:25.222Z,2.22
2023-03-22T01:24:20.779Z,2.20
2023-03-22T01:26:48.364Z,2.72
2023-03-22T01:29:15.898Z,3.00
2023-03-22T01:34:10.928Z,4.20
2023-03-22T01:36:38.083Z,4.70
2023-03-22T01:39:05.567Z,4.03
2023-03-22T01:41:35.254Z,3.20
2023-03-22T01:44:23.745Z,3.95
2023-03-22T01:46:52.220Z,2.53
2023-03-22T01:49:35.089Z,2.65
2023-03-22T01:52:13.324Z,2.80
2023-03-22T01:54:52.834Z,3.47
2023-03-22T01:57:20.493Z,4.43
2023-03-22T01:59:50.282Z,2.97
2023-03-22T02:02:22.705Z,2.83
2023-03-22T02:04:58.312Z,3.53
2023-03-22T02:07:28.601Z,3.30
2023-03-22T02:09:59.567Z,3.17
2023-03-22T02:13:10.446Z,3.35
2023-03-22T02:16:00.196Z,3.72
2023-03-22T02:18:44.729Z,2.83
2023-03-22T02:22:06.765Z,2.88
2023-03-22T02:25:13.672Z,3.28
2023-03-22T02:28:08.535Z,4.07
2023-03-22T02:30:57.198Z,4.68
2023-03-22T02:33:51.945Z,3.78
2023-03-22T02:36:53.950Z,4.35
2023-03-22T02:39:45.294Z,3.72
2023-03-22T02:42:31.430Z,3.63
2023-03-22T02:45:40.894Z,3.88
2023-03-22T02:48:23.399Z,3.42
2023-03-22T02:51:00.941Z,3.13
2023-03-22T02:53:36.375Z,3.40
2023-03-22T02:56:21.110Z,3.20
2023-03-22T02:58:56.691Z,2.00
2023-03-22T03:01:49.487Z,2.60
2023-03-22T03:04:27.007Z,3.00
2023-03-22T03:07:00.907Z,3.40
2023-03-22T03:11:56.424Z,3.35
2023-03-22T03:14:26.603Z,3.08
2023-03-22T03:17:24.488Z,4.18
2023-03-22T03:20:16.923Z,3.17
2023-03-22T03:23:20.064Z,3.83
2023-03-22T03:26:33.834Z,2.80
2023-03-22T03:29:47.089Z,3.28
2023-03-22T03:32:53.684Z,2.63
2023-03-22T03:35:33.854Z,3.15
2023-03-22T03:38:10.577Z,2.80
2023-03-22T03:40:49.032Z,3.15
2023-03-22T03:43:17.791Z,3.30
2023-03-22T03:45:45.840Z,3.45
2023-03-22T03:48:22.443Z,3.10
2023-03-22T03:50:53.542Z,3.13
2023-03-22T03:53:20.774Z,2.75
2023-03-22T03:55:48.129Z,2.90
2023-03-22T03:58:18.454Z,3.45
2023-03-22T04:00:48.446Z,2.90
2023-03-22T04:03:16.280Z,3.22
2023-03-22T04:05:44.224Z,3.50
2023-03-22T04:08:11.425Z,2.80
2023-03-22T04:10:38.913Z,4.10
2023-03-22T04:13:06.327Z,3.25
2023-03-22T04:15:33.568Z,3.10
2023-03-22T04:18:00.711Z,3.20
2023-03-22T04:20:27.929Z,3.47
2023-03-22T04:22:55.128Z,3.45
2023-03-22T04:25:23.039Z,2.70
2023-03-22T04:27:51.557Z,2.60
2023-03-22T04:30:23.042Z,2.95
2023-03-22T04:32:50.513Z,2.53
2023-03-22T04:35:18.926Z,2.80
2023-03-22T04:37:46.079Z,2.65
2023-03-22T04:40:17.282Z,3.15
2023-03-22T04:42:45.669Z,2.75
2023-03-22T04:45:14.358Z,4.03
2023-03-22T04:47:41.623Z,3.33
2023-03-22T04:50:09.930Z,3.00
2023-03-22T04:52:37.019Z,2.78
2023-03-22T04:55:04.638Z,3.55
2023-03-22T04:57:31.799Z,3.28
2023-03-22T04:59:58.970Z,2.92
2023-03-22T05:02:26.135Z,3.00
2023-03-22T05:04:53.614Z,3.55
2023-03-22T05:07:21.259Z,3.42
2023-03-22T05:09:48.381Z,3.42
2023-03-22T05:12:15.614Z,3.45
2023-03-22T05:14:42.852Z,3.30
2023-03-22T05:17:11.223Z,4.88
2023-03-22T05:19:38.493Z,5.35
2023-03-22T05:22:05.652Z,5.05
2023-03-22T05:24:32.880Z,4.88
2023-03-22T05:27:01.267Z,4.55
2023-03-22T05:29:29.035Z,3.97
2023-03-22T05:31:56.319Z,4.38
2023-03-22T05:34:23.496Z,6.05
2023-03-22T05:36:51.694Z,5.03
2023-03-22T05:39:19.152Z,4.03
2023-03-22T05:41:46.796Z,3.88
2023-03-22T05:44:13.981Z,4.75
2023-03-22T05:46:41.230Z,4.10
2023-03-22T05:49:12.166Z,4.28
2023-03-22T05:51:41.881Z,4.45
2023-03-22T05:54:10.294Z,5.68
2023-03-22T05:56:37.549Z,5.43
2023-03-22T05:59:05.144Z,5.38
2023-03-22T06:01:33.612Z,6.03
2023-03-22T06:04:01.070Z,5.18
2023-03-22T06:09:10.387Z,5.60
2023-03-22T06:11:41.530Z,6.57
2023-03-22T06:14:09.446Z,6.45
2023-03-22T06:16:36.677Z,6.35
2023-03-22T06:19:03.915Z,6.45
2023-03-22T06:21:31.088Z,6.80
2023-03-22T06:23:58.224Z,6.18
2023-03-22T06:26:25.588Z,8.00
2023-03-22T06:31:19.911Z,7.15
2023-03-22T06:33:47.302Z,6.78
2023-03-22T06:36:14.798Z,6.45
2023-03-22T06:38:42.019Z,7.15
2023-03-22T06:41:09.633Z,5.57
2023-03-22T06:43:36.780Z,5.50
2023-03-22T06:46:04.113Z,5.97
2023-03-22T06:51:00.047Z,5.32
2023-03-22T06:53:27.485Z,5.32
2023-03-22T06:58:23.033Z,5.28
2023-03-22T07:03:21.644Z,6.50
2023-03-22T07:05:50.603Z,6.30
2023-03-22T07:08:33.674Z,6.70
2023-03-22T07:11:01.782Z,5.75
2023-03-22T07:13:29.404Z,7.85
2023-03-22T07:18:35.432Z,7.97
2023-03-22T07:21:05.965Z,7.70
2023-03-22T07:23:36.132Z,7.88
2023-03-22T07:26:06.144Z,7.97
2023-03-22T07:28:36.039Z,8.30
2023-03-22T07:31:12.318Z,8.15
2023-03-22T07:33:41.970Z,8.68
2023-03-22T07:36:12.163Z,8.82
2023-03-22T07:38:43.395Z,7.15
2023-03-22T07:41:12.862Z,6.47
2023-03-22T07:43:54.020Z,6.32
2023-03-22T07:46:27.005Z,6.82
2023-03-22T07:48:57.146Z,7.55
2023-03-22T07:51:26.965Z,8.65
2023-03-22T07:53:57.121Z,7.13
2023-03-22T07:56:26.394Z,7.50
2023-03-22T07:58:59.309Z,8.25
2023-03-22T08:01:29.259Z,7.10
2023-03-22T08:04:03.720Z,6.55
2023-03-22T08:06:40.325Z,6.05
2023-03-22T08:13:45.033Z,8.52
2023-03-22T08:16:17.876Z,9.73
2023-03-22T08:18:45.724Z,8.93
2023-03-22T08:21:13.007Z,10.07
2023-03-22T08:23:42.129Z,10.18
2023-03-22T08:26:13.058Z,8.95
2023-03-22T08:28:40.232Z,6.80
2023-03-22T08:33:44.219Z,5.95
2023-03-22T08:36:17.354Z,5.78
2023-03-22T08:38:45.556Z,5.78
2023-03-22T08:41:16.900Z,6.15
2023-03-22T08:43:48.254Z,6.00
2023-03-22T08:46:16.797Z,6.53
2023-03-22T08:48:50.761Z,5.15
2023-03-22T08:59:29.676Z,3.92
2023-03-22T09:01:57.325Z,4.05
2023-03-22T09:04:24.673Z,5.07
2023-03-22T09:06:52.681Z,4.38
2023-03-22T09:09:19.938Z,3.97
2023-03-22T09:12:36.316Z,5.13
2023-03-22T09:15:06.987Z,3.95
2023-03-22T09:17:34.546Z,4.65
2023-03-22T09:20:11.895Z,5.18
2023-03-22T09:22:40.654Z,4.78
2023-03-22T09:25:10.366Z,4.22
2023-03-22T09:27:38.933Z,4.40
2023-03-22T09:30:06.884Z,4.45
2023-03-22T09:32:41.178Z,4.68
2023-03-22T09:35:14.743Z,4.78
2023-03-22T09:37:42.661Z,5.30
2023-03-22T09:40:13.517Z,5.60
2023-03-22T09:42:47.683Z,5.22
2023-03-22T09:45:31.108Z,5.68
2023-03-22T09:48:00.708Z,6.40
2023-03-22T09:50:35.198Z,5.47
2023-03-22T09:53:02.403Z,6.30
2023-03-22T09:55:43.721Z,7.05
2023-03-22T09:58:53.675Z,7.05
2023-03-22T10:01:31.550Z,5.72
2023-03-22T10:22:44.713Z,5.38
2023-03-22T10:25:22.651Z,4.72
2023-03-22T10:27:52.573Z,5.60
2023-03-22T10:40:07.116Z,3.88
2023-03-22T10:42:40.288Z,4.30
2023-03-22T10:45:16.684Z,4.90
2023-03-22T10:48:00.932Z,4.13
2023-03-22T10:50:37.196Z,4.63
2023-03-22T10:53:24.570Z,4.60
2023-03-22T10:55:52.476Z,4.95
2023-03-22T10:58:32.759Z,4.65
2023-03-22T11:01:15.437Z,4.32
2023-03-22T11:03:52.128Z,4.18
2023-03-22T11:06:35.692Z,4.68
2023-03-22T11:09:22.412Z,4.13
2023-03-22T11:12:00.757Z,4.25
2023-03-22T11:14:44.655Z,4.25
2023-03-22T11:17:22.808Z,5.50
2023-03-22T11:20:10.113Z,4.95
2023-03-22T11:22:44.951Z,4.85
2023-03-22T11:25:30.926Z,4.85
2023-03-22T11:28:20.788Z,4.13
2023-03-22T11:31:07.867Z,4.38
2023-03-22T11:33:36.591Z,5.15
2023-03-22T11:36:17.832Z,5.70
2023-03-22T11:38:47.448Z,4.45
2023-03-22T11:41:25.733Z,4.57
2023-03-22T11:44:04.949Z,5.00
2023-03-22T11:46:35.079Z,5.15
2023-03-22T11:49:14.836Z,4.97
2023-03-22T11:51:44.053Z,4.90
2023-03-22T11:54:42.628Z,4.20
2023-03-22T12:00:12.105Z,3.95
2023-03-22T12:03:06.318Z,3.92
2023-03-22T12:05:39.593Z,4.45
2023-03-22T12:08:34.223Z,4.55
2023-03-22T12:11:12.628Z,3.80
2023-03-22T12:14:00.227Z,3.35
2023-03-22T12:16:39.499Z,4.05
2023-03-22T12:19:41.735Z,4.50
2023-03-22T12:22:24.806Z,2.13
2023-03-22T12:24:52.051Z,2.15
2023-03-22T12:27:36.288Z,2.00
2023-03-22T12:30:12.994Z,2.80
2023-03-22T12:33:06.964Z,3.60
2023-03-22T12:35:42.209Z,1.48
2023-03-22T12:38:27.877Z,2.92
2023-03-22T12:41:00.679Z,3.00
2023-03-22T12:44:00.698Z,3.88
2023-03-22T12:46:42.147Z,3.55
2023-03-22T12:49:24.001Z,3.40
2023-03-22T12:51:56.297Z,3.08
2023-03-22T12:54:26.138Z,3.95
2023-03-22T12:56:55.520Z,3.28
2023-03-22T12:59:32.040Z,3.67
2023-03-22T13:02:33.187Z,3.40
2023-03-22T13:05:06.856Z,3.80
2023-03-22T13:07:53.526Z,3.58
2023-03-22T13:10:33.158Z,4.35
2023-03-22T13:13:18.287Z,4.22
2023-03-22T13:16:09.954Z,3.17
2023-03-22T13:18:38.437Z,7.30
2023-03-22T13:21:21.423Z,3.50
2023-03-22T13:24:10.395Z,4.10
2023-03-22T13:26:46.249Z,3.30
2023-03-22T13:29:24.695Z,3.97
2023-03-22T13:31:51.896Z,3.88
2023-03-22T13:34:46.961Z,4.38
2023-03-22T13:37:44.637Z,3.15
2023-03-22T13:40:44.487Z,3.20
2023-03-22T13:43:25.742Z,3.95
2023-03-22T13:46:11.585Z,4.13
2023-03-22T13:48:54.499Z,3.30
2023-03-22T13:51:26.785Z,4.07
2023-03-22T13:54:00.546Z,2.75
2023-03-22T13:56:43.402Z,2.20
2023-03-22T13:59:30.053Z,4.05
2023-03-22T14:02:29.542Z,4.00
2023-03-22T14:05:22.585Z,3.42
2023-03-22T14:07:56.631Z,3.58
2023-03-22T14:10:44.002Z,3.30
2023-03-22T14:13:40.445Z,3.83
2023-03-22T14:16:45.558Z,4.93
2023-03-22T14:19:42.200Z,4.68
